sensor_id;sensor_type;location;lat;lon;timestamp;temperature;humidity
65404;DHT22;52014;52.088;5.096;2023-04-03T00:01:22;5.90;99.90
65404;DHT22;52014;52.088;5.096;2023-04-03T00:03:48;5.90;99.90
65404;DHT22;52014;52.088;5.096;2023-04-03T00:06:13;5.90;99.90
65404;DHT22;52014;52.088;5.096;2023-04-03T00:08:39;5.90;99.90
65404;DHT22;52014;52.088;5.096;2023-04-03T00:11:05;5.90;99.90
65404;DHT22;52014;52.088;5.096;2023-04-03T00:13:30;5.80;99.90
65404;DHT22;52014;52.088;5.096;2023-04-03T00:15:56;5.90;99.90
65404;DHT22;52014;52.088;5.096;2023-04-03T00:18:21;5.80;99.90
65404;DHT22;52014;52.088;5.096;2023-04-03T00:20:47;5.80;99.90
65404;DHT22;52014;52.088;5.096;2023-04-03T00:23:12;5.80;99.90
65404;DHT22;52014;52.088;5.096;2023-04-03T00:25:38;5.80;99.90
65404;DHT22;52014;52.088;5.096;2023-04-03T00:28:03;5.80;99.90
65404;DHT22;52014;52.088;5.096;2023-04-03T00:30:29;5.70;99.90
65404;DHT22;52014;52.088;5.096;2023-04-03T00:32:55;5.60;99.90
65404;DHT22;52014;52.088;5.096;2023-04-03T00:35:21;5.60;99.90
65404;DHT22;52014;52.088;5.096;2023-04-03T00:37:47;5.70;99.90
65404;DHT22;52014;52.088;5.096;2023-04-03T00:40:13;5.60;99.90
65404;DHT22;52014;52.088;5.096;2023-04-03T00:42:43;5.60;99.90
65404;DHT22;52014;52.088;5.096;2023-04-03T00:47:43;5.60;99.90
65404;DHT22;52014;52.088;5.096;2023-04-03T00:50:08;5.60;99.90
65404;DHT22;52014;52.088;5.096;2023-04-03T00:52:34;5.50;99.90
65404;DHT22;52014;52.088;5.096;2023-04-03T00:55:02;5.50;99.90
65404;DHT22;52014;52.088;5.096;2023-04-03T00:57:29;5.50;99.90
65404;DHT22;52014;52.088;5.096;2023-04-03T00:59:57;5.50;99.90
65404;DHT22;52014;52.088;5.096;2023-04-03T01:02:25;5.50;99.90
65404;DHT22;52014;52.088;5.096;2023-04-03T01:04:51;5.50;99.90
65404;DHT22;52014;52.088;5.096;2023-04-03T01:07:18;5.40;99.90
65404;DHT22;52014;52.088;5.096;2023-04-03T01:09:44;5.40;99.90
65404;DHT22;52014;52.088;5.096;2023-04-03T01:12:18;5.40;99.90
65404;DHT22;52014;52.088;5.096;2023-04-03T01:14:44;5.40;99.90
65404;DHT22;52014;52.088;5.096;2023-04-03T01:22:44;5.30;99.90
65404;DHT22;52014;52.088;5.096;2023-04-03T01:25:15;5.30;99.90
65404;DHT22;52014;52.088;5.096;2023-04-03T01:27:40;5.30;99.90
65404;DHT22;52014;52.088;5.096;2023-04-03T01:30:06;5.30;99.90
65404;DHT22;52014;52.088;5.096;2023-04-03T01:32:32;5.30;99.90
65404;DHT22;52014;52.088;5.096;2023-04-03T01:34:57;5.20;99.90
65404;DHT22;52014;52.088;5.096;2023-04-03T01:37:23;5.30;99.90
65404;DHT22;52014;52.088;5.096;2023-04-03T01:39:48;5.20;99.90
65404;DHT22;52014;52.088;5.096;2023-04-03T01:42:13;5.20;99.90
65404;DHT22;52014;52.088;5.096;2023-04-03T01:44:39;5.20;99.90
65404;DHT22;52014;52.088;5.096;2023-04-03T01:47:07;5.20;99.90
65404;DHT22;52014;52.088;5.096;2023-04-03T01:49:33;5.20;99.90
65404;DHT22;52014;52.088;5.096;2023-04-03T01:51:58;5.20;99.90
65404;DHT22;52014;52.088;5.096;2023-04-03T01:54:24;5.20;99.90
65404;DHT22;52014;52.088;5.096;2023-04-03T01:56:49;5.10;99.90
65404;DHT22;52014;52.088;5.096;2023-04-03T01:59:15;5.10;99.90
65404;DHT22;52014;52.088;5.096;2023-04-03T02:01:42;5.10;99.90
65404;DHT22;52014;52.088;5.096;2023-04-03T02:04:08;5.00;99.90
65404;DHT22;52014;52.088;5.096;2023-04-03T02:06:34;5.10;99.90
65404;DHT22;52014;52.088;5.096;2023-04-03T02:09:00;5.10;99.90
65404;DHT22;52014;52.088;5.096;2023-04-03T02:11:25;5.00;99.90
65404;DHT22;52014;52.088;5.096;2023-04-03T02:13:51;5.10;99.90
65404;DHT22;52014;52.088;5.096;2023-04-03T02:16:16;5.10;99.90
65404;DHT22;52014;52.088;5.096;2023-04-03T02:18:42;5.10;99.90
65404;DHT22;52014;52.088;5.096;2023-04-03T02:21:08;5.00;99.90
65404;DHT22;52014;52.088;5.096;2023-04-03T02:23:33;5.00;99.90
65404;DHT22;52014;52.088;5.096;2023-04-03T02:26:04;5.00;99.90
65404;DHT22;52014;52.088;5.096;2023-04-03T02:28:31;5.00;99.90
65404;DHT22;52014;52.088;5.096;2023-04-03T02:30:56;5.00;99.90
65404;DHT22;52014;52.088;5.096;2023-04-03T02:33:22;5.00;99.90
65404;DHT22;52014;52.088;5.096;2023-04-03T02:35:51;5.00;99.90
65404;DHT22;52014;52.088;5.096;2023-04-03T02:38:18;4.90;99.90
65404;DHT22;52014;52.088;5.096;2023-04-03T02:40:43;4.90;99.90
65404;DHT22;52014;52.088;5.096;2023-04-03T02:43:09;4.90;99.90
65404;DHT22;52014;52.088;5.096;2023-04-03T02:45:35;4.90;99.90
65404;DHT22;52014;52.088;5.096;2023-04-03T02:48:00;4.90;99.90
65404;DHT22;52014;52.088;5.096;2023-04-03T02:50:26;4.80;99.90
65404;DHT22;52014;52.088;5.096;2023-04-03T02:52:51;4.90;99.90
65404;DHT22;52014;52.088;5.096;2023-04-03T02:55:17;4.80;99.90
65404;DHT22;52014;52.088;5.096;2023-04-03T02:57:42;4.80;99.90
65404;DHT22;52014;52.088;5.096;2023-04-03T03:00:08;4.90;99.90
65404;DHT22;52014;52.088;5.096;2023-04-03T03:02:34;4.80;99.90
65404;DHT22;52014;52.088;5.096;2023-04-03T03:04:59;4.80;99.90
65404;DHT22;52014;52.088;5.096;2023-04-03T03:07:25;4.80;99.90
65404;DHT22;52014;52.088;5.096;2023-04-03T03:09:51;4.80;99.90
65404;DHT22;52014;52.088;5.096;2023-04-03T03:12:16;4.70;99.90
65404;DHT22;52014;52.088;5.096;2023-04-03T03:14:46;4.70;99.90
65404;DHT22;52014;52.088;5.096;2023-04-03T03:17:12;4.80;99.90
65404;DHT22;52014;52.088;5.096;2023-04-03T03:19:37;4.70;99.90
65404;DHT22;52014;52.088;5.096;2023-04-03T03:22:03;4.70;99.90
65404;DHT22;52014;52.088;5.096;2023-04-03T03:24:28;4.70;99.90
65404;DHT22;52014;52.088;5.096;2023-04-03T03:26:53;4.70;99.90
65404;DHT22;52014;52.088;5.096;2023-04-03T03:29:19;4.70;99.90
65404;DHT22;52014;52.088;5.096;2023-04-03T03:31:45;4.70;99.90
65404;DHT22;52014;52.088;5.096;2023-04-03T03:34:10;4.70;99.90
65404;DHT22;52014;52.088;5.096;2023-04-03T03:36:36;4.60;99.90
65404;DHT22;52014;52.088;5.096;2023-04-03T03:39:01;4.60;99.90
65404;DHT22;52014;52.088;5.096;2023-04-03T03:41:27;4.60;99.90
65404;DHT22;52014;52.088;5.096;2023-04-03T03:43:52;4.60;99.90
65404;DHT22;52014;52.088;5.096;2023-04-03T03:46:17;4.60;99.90
65404;DHT22;52014;52.088;5.096;2023-04-03T03:48:43;4.60;99.90
65404;DHT22;52014;52.088;5.096;2023-04-03T03:51:08;4.70;99.90
65404;DHT22;52014;52.088;5.096;2023-04-03T03:53:34;4.60;99.90
65404;DHT22;52014;52.088;5.096;2023-04-03T03:55:59;4.60;99.90
65404;DHT22;52014;52.088;5.096;2023-04-03T03:58:25;4.50;99.90
65404;DHT22;52014;52.088;5.096;2023-04-03T04:00:50;4.60;99.90
65404;DHT22;52014;52.088;5.096;2023-04-03T04:03:16;4.50;99.90
65404;DHT22;52014;52.088;5.096;2023-04-03T04:05:41;4.40;99.90
65404;DHT22;52014;52.088;5.096;2023-04-03T04:08:07;4.50;99.90
65404;DHT22;52014;52.088;5.096;2023-04-03T04:10:33;4.50;99.90
65404;DHT22;52014;52.088;5.096;2023-04-03T04:12:58;4.50;99.90
65404;DHT22;52014;52.088;5.096;2023-04-03T04:15:24;4.50;99.90
65404;DHT22;52014;52.088;5.096;2023-04-03T04:17:50;4.50;99.90
65404;DHT22;52014;52.088;5.096;2023-04-03T04:20:16;4.40;99.90
65404;DHT22;52014;52.088;5.096;2023-04-03T04:22:42;4.40;99.90
65404;DHT22;52014;52.088;5.096;2023-04-03T04:25:27;4.30;99.90
65404;DHT22;52014;52.088;5.096;2023-04-03T04:27:53;4.30;99.90
65404;DHT22;52014;52.088;5.096;2023-04-03T04:30:18;4.40;99.90
65404;DHT22;52014;52.088;5.096;2023-04-03T04:32:43;4.40;99.90
65404;DHT22;52014;52.088;5.096;2023-04-03T04:35:09;4.40;99.90
65404;DHT22;52014;52.088;5.096;2023-04-03T04:37:34;4.40;99.90
65404;DHT22;52014;52.088;5.096;2023-04-03T04:40:00;4.30;99.90
65404;DHT22;52014;52.088;5.096;2023-04-03T04:42:25;4.30;99.90
65404;DHT22;52014;52.088;5.096;2023-04-03T04:44:51;4.30;99.90
65404;DHT22;52014;52.088;5.096;2023-04-03T04:47:17;4.30;99.90
65404;DHT22;52014;52.088;5.096;2023-04-03T04:49:42;4.30;99.90
65404;DHT22;52014;52.088;5.096;2023-04-03T04:52:08;4.30;99.90
65404;DHT22;52014;52.088;5.096;2023-04-03T04:54:33;4.30;99.90
65404;DHT22;52014;52.088;5.096;2023-04-03T04:56:59;4.30;99.90
65404;DHT22;52014;52.088;5.096;2023-04-03T04:59:24;4.30;99.90
65404;DHT22;52014;52.088;5.096;2023-04-03T05:01:50;4.30;99.90
65404;DHT22;52014;52.088;5.096;2023-04-03T05:04:16;4.30;99.90
65404;DHT22;52014;52.088;5.096;2023-04-03T05:06:41;4.30;99.90
65404;DHT22;52014;52.088;5.096;2023-04-03T05:09:07;4.30;99.90
65404;DHT22;52014;52.088;5.096;2023-04-03T05:11:32;4.30;99.90
65404;DHT22;52014;52.088;5.096;2023-04-03T05:13:58;4.30;99.90
65404;DHT22;52014;52.088;5.096;2023-04-03T05:16:23;4.20;99.90
65404;DHT22;52014;52.088;5.096;2023-04-03T05:18:49;4.20;99.90
65404;DHT22;52014;52.088;5.096;2023-04-03T05:21:14;4.20;99.90
65404;DHT22;52014;52.088;5.096;2023-04-03T05:23:40;4.20;99.90
65404;DHT22;52014;52.088;5.096;2023-04-03T05:26:05;4.20;99.90
65404;DHT22;52014;52.088;5.096;2023-04-03T05:28:31;4.20;99.90
65404;DHT22;52014;52.088;5.096;2023-04-03T05:30:57;4.20;99.90
65404;DHT22;52014;52.088;5.096;2023-04-03T05:33:23;4.20;99.90
65404;DHT22;52014;52.088;5.096;2023-04-03T05:35:49;4.20;99.90
65404;DHT22;52014;52.088;5.096;2023-04-03T05:38:15;4.20;99.90
65404;DHT22;52014;52.088;5.096;2023-04-03T05:40:40;4.20;99.90
65404;DHT22;52014;52.088;5.096;2023-04-03T05:43:06;4.20;99.90
65404;DHT22;52014;52.088;5.096;2023-04-03T05:45:31;4.20;99.90
65404;DHT22;52014;52.088;5.096;2023-04-03T05:47:56;4.20;99.90
65404;DHT22;52014;52.088;5.096;2023-04-03T05:50:22;4.20;99.90
65404;DHT22;52014;52.088;5.096;2023-04-03T05:52:49;4.20;99.90
65404;DHT22;52014;52.088;5.096;2023-04-03T05:55:15;4.10;99.90
65404;DHT22;52014;52.088;5.096;2023-04-03T05:57:40;4.20;99.90
65404;DHT22;52014;52.088;5.096;2023-04-03T06:00:07;4.20;99.90
65404;DHT22;52014;52.088;5.096;2023-04-03T06:02:32;4.20;99.90
65404;DHT22;52014;52.088;5.096;2023-04-03T06:04:58;4.20;99.90
65404;DHT22;52014;52.088;5.096;2023-04-03T06:07:24;4.20;99.90
65404;DHT22;52014;52.088;5.096;2023-04-03T06:09:54;4.20;99.90
65404;DHT22;52014;52.088;5.096;2023-04-03T06:12:21;4.30;99.90
65404;DHT22;52014;52.088;5.096;2023-04-03T06:14:46;4.30;99.90
65404;DHT22;52014;52.088;5.096;2023-04-03T06:17:12;4.40;99.90
65404;DHT22;52014;52.088;5.096;2023-04-03T06:19:38;4.50;99.90
65404;DHT22;52014;52.088;5.096;2023-04-03T06:22:04;4.70;99.90
65404;DHT22;52014;52.088;5.096;2023-04-03T06:24:30;4.90;99.90
65404;DHT22;52014;52.088;5.096;2023-04-03T06:26:56;4.80;99.90
65404;DHT22;52014;52.088;5.096;2023-04-03T06:29:21;4.90;99.90
65404;DHT22;52014;52.088;5.096;2023-04-03T06:31:47;5.10;99.90
65404;DHT22;52014;52.088;5.096;2023-04-03T06:34:13;5.20;99.90
65404;DHT22;52014;52.088;5.096;2023-04-03T06:36:39;5.30;99.90
65404;DHT22;52014;52.088;5.096;2023-04-03T06:39:04;5.30;99.90
65404;DHT22;52014;52.088;5.096;2023-04-03T06:41:30;5.40;99.90
65404;DHT22;52014;52.088;5.096;2023-04-03T06:43:56;5.50;99.90
65404;DHT22;52014;52.088;5.096;2023-04-03T06:46:23;5.60;99.90
65404;DHT22;52014;52.088;5.096;2023-04-03T06:48:49;5.60;99.90
65404;DHT22;52014;52.088;5.096;2023-04-03T06:51:16;5.70;99.90
65404;DHT22;52014;52.088;5.096;2023-04-03T06:53:42;5.80;99.90
65404;DHT22;52014;52.088;5.096;2023-04-03T06:56:08;5.90;99.90
65404;DHT22;52014;52.088;5.096;2023-04-03T06:58:33;6.10;99.90
65404;DHT22;52014;52.088;5.096;2023-04-03T07:00:59;6.10;99.90
65404;DHT22;52014;52.088;5.096;2023-04-03T07:03:25;6.10;99.90
65404;DHT22;52014;52.088;5.096;2023-04-03T07:05:50;6.30;99.90
65404;DHT22;52014;52.088;5.096;2023-04-03T07:08:16;6.40;99.90
65404;DHT22;52014;52.088;5.096;2023-04-03T07:10:41;6.50;99.90
65404;DHT22;52014;52.088;5.096;2023-04-03T07:13:07;6.60;99.90
65404;DHT22;52014;52.088;5.096;2023-04-03T07:15:32;6.50;99.90
65404;DHT22;52014;52.088;5.096;2023-04-03T07:17:58;6.50;99.90
65404;DHT22;52014;52.088;5.096;2023-04-03T07:20:24;6.60;99.90
65404;DHT22;52014;52.088;5.096;2023-04-03T07:22:49;6.90;99.90
65404;DHT22;52014;52.088;5.096;2023-04-03T07:25:15;6.90;99.90
65404;DHT22;52014;52.088;5.096;2023-04-03T07:27:41;7.00;99.90
65404;DHT22;52014;52.088;5.096;2023-04-03T07:30:07;7.10;99.90
65404;DHT22;52014;52.088;5.096;2023-04-03T07:32:33;7.00;99.90
65404;DHT22;52014;52.088;5.096;2023-04-03T07:34:58;7.10;99.90
65404;DHT22;52014;52.088;5.096;2023-04-03T07:37:23;7.10;99.90
65404;DHT22;52014;52.088;5.096;2023-04-03T07:39:49;7.30;99.90
65404;DHT22;52014;52.088;5.096;2023-04-03T07:42:14;7.30;99.90
65404;DHT22;52014;52.088;5.096;2023-04-03T07:44:40;7.40;99.90
65404;DHT22;52014;52.088;5.096;2023-04-03T07:47:06;7.50;99.90
65404;DHT22;52014;52.088;5.096;2023-04-03T07:49:31;7.60;99.90
65404;DHT22;52014;52.088;5.096;2023-04-03T07:51:58;7.50;99.90
65404;DHT22;52014;52.088;5.096;2023-04-03T07:54:23;7.50;99.90
65404;DHT22;52014;52.088;5.096;2023-04-03T07:56:49;7.50;99.90
65404;DHT22;52014;52.088;5.096;2023-04-03T07:59:14;7.60;99.90
65404;DHT22;52014;52.088;5.096;2023-04-03T08:01:40;7.60;99.90
65404;DHT22;52014;52.088;5.096;2023-04-03T08:04:05;7.50;99.90
65404;DHT22;52014;52.088;5.096;2023-04-03T08:06:31;7.50;99.90
65404;DHT22;52014;52.088;5.096;2023-04-03T08:09:00;7.70;99.90
65404;DHT22;52014;52.088;5.096;2023-04-03T08:11:25;7.50;99.90
65404;DHT22;52014;52.088;5.096;2023-04-03T08:13:52;7.70;99.90
65404;DHT22;52014;52.088;5.096;2023-04-03T08:16:18;7.80;99.90
65404;DHT22;52014;52.088;5.096;2023-04-03T08:18:45;7.70;99.90
65404;DHT22;52014;52.088;5.096;2023-04-03T08:21:11;7.70;99.90
65404;DHT22;52014;52.088;5.096;2023-04-03T08:23:37;7.70;99.90
65404;DHT22;52014;52.088;5.096;2023-04-03T08:26:06;7.60;99.90
65404;DHT22;52014;52.088;5.096;2023-04-03T08:28:32;7.60;99.90
65404;DHT22;52014;52.088;5.096;2023-04-03T08:31:02;7.50;99.90
65404;DHT22;52014;52.088;5.096;2023-04-03T08:33:27;7.60;99.90
65404;DHT22;52014;52.088;5.096;2023-04-03T08:35:53;7.60;99.90
65404;DHT22;52014;52.088;5.096;2023-04-03T08:38:18;7.60;99.90
65404;DHT22;52014;52.088;5.096;2023-04-03T08:40:43;7.50;99.90
65404;DHT22;52014;52.088;5.096;2023-04-03T08:45:55;7.50;99.90
65404;DHT22;52014;52.088;5.096;2023-04-03T08:50:55;7.50;99.90
65404;DHT22;52014;52.088;5.096;2023-04-03T08:53:25;7.40;99.90
65404;DHT22;52014;52.088;5.096;2023-04-03T08:55:53;7.50;99.90
65404;DHT22;52014;52.088;5.096;2023-04-03T08:58:21;7.60;99.90
65404;DHT22;52014;52.088;5.096;2023-04-03T09:00:48;7.60;99.90
65404;DHT22;52014;52.088;5.096;2023-04-03T09:03:15;7.60;99.90
65404;DHT22;52014;52.088;5.096;2023-04-03T09:05:43;7.70;99.90
65404;DHT22;52014;52.088;5.096;2023-04-03T09:08:20;7.90;99.90
65404;DHT22;52014;52.088;5.096;2023-04-03T09:10:46;8.00;99.90
65404;DHT22;52014;52.088;5.096;2023-04-03T09:15:46;8.10;99.90
65404;DHT22;52014;52.088;5.096;2023-04-03T09:18:16;8.40;99.90
65404;DHT22;52014;52.088;5.096;2023-04-03T09:20:56;8.60;99.90
65404;DHT22;52014;52.088;5.096;2023-04-03T09:23:30;8.60;99.90
65404;DHT22;52014;52.088;5.096;2023-04-03T09:26:02;8.70;99.90
65404;DHT22;52014;52.088;5.096;2023-04-03T09:28:31;8.80;99.90
65404;DHT22;52014;52.088;5.096;2023-04-03T09:30:57;9.00;99.90
65404;DHT22;52014;52.088;5.096;2023-04-03T09:33:24;9.00;99.90
65404;DHT22;52014;52.088;5.096;2023-04-03T09:35:50;9.10;99.90
65404;DHT22;52014;52.088;5.096;2023-04-03T09:38:17;9.40;99.90
65404;DHT22;52014;52.088;5.096;2023-04-03T09:40:44;9.50;99.90
65404;DHT22;52014;52.088;5.096;2023-04-03T09:45:42;9.70;99.90
65404;DHT22;52014;52.088;5.096;2023-04-03T09:53:36;9.80;99.90
65404;DHT22;52014;52.088;5.096;2023-04-03T09:56:03;10.10;99.90
65404;DHT22;52014;52.088;5.096;2023-04-03T09:58:31;10.20;99.90
65404;DHT22;52014;52.088;5.096;2023-04-03T10:00:59;10.00;99.90
65404;DHT22;52014;52.088;5.096;2023-04-03T10:03:27;9.90;99.90
65404;DHT22;52014;52.088;5.096;2023-04-03T10:05:53;9.80;99.90
65404;DHT22;52014;52.088;5.096;2023-04-03T10:08:22;9.80;99.90
65404;DHT22;52014;52.088;5.096;2023-04-03T10:13:32;9.80;99.90
65404;DHT22;52014;52.088;5.096;2023-04-03T10:16:07;9.90;99.90
65404;DHT22;52014;52.088;5.096;2023-04-03T10:18:39;10.10;99.90
65404;DHT22;52014;52.088;5.096;2023-04-03T10:23:59;10.20;99.90
65404;DHT22;52014;52.088;5.096;2023-04-03T10:31:36;10.80;99.90
65404;DHT22;52014;52.088;5.096;2023-04-03T10:36:50;11.60;99.90
65404;DHT22;52014;52.088;5.096;2023-04-03T10:39:27;11.30;99.90
65404;DHT22;52014;52.088;5.096;2023-04-03T10:42:02;10.70;99.90
65404;DHT22;52014;52.088;5.096;2023-04-03T10:52:14;10.50;99.90
65404;DHT22;52014;52.088;5.096;2023-04-03T10:54:46;10.50;99.90
65404;DHT22;52014;52.088;5.096;2023-04-03T10:57:14;10.40;99.90
65404;DHT22;52014;52.088;5.096;2023-04-03T10:59:56;10.40;99.90
65404;DHT22;52014;52.088;5.096;2023-04-03T11:02:24;10.40;99.90
65404;DHT22;52014;52.088;5.096;2023-04-03T11:04:51;10.50;99.90
65404;DHT22;52014;52.088;5.096;2023-04-03T11:07:20;10.30;99.90
65404;DHT22;52014;52.088;5.096;2023-04-03T11:09:48;10.20;99.90
65404;DHT22;52014;52.088;5.096;2023-04-03T11:14:40;10.20;99.90
65404;DHT22;52014;52.088;5.096;2023-04-03T11:19:59;10.10;99.90
65404;DHT22;52014;52.088;5.096;2023-04-03T11:22:27;10.20;99.90
65404;DHT22;52014;52.088;5.096;2023-04-03T11:27:24;10.20;99.90
65404;DHT22;52014;52.088;5.096;2023-04-03T11:29:50;10.10;97.90
65404;DHT22;52014;52.088;5.096;2023-04-03T11:32:29;10.10;99.90
65404;DHT22;52014;52.088;5.096;2023-04-03T11:34:57;10.10;99.90
65404;DHT22;52014;52.088;5.096;2023-04-03T11:37:34;10.00;99.90
65404;DHT22;52014;52.088;5.096;2023-04-03T11:47:45;9.90;99.90
65404;DHT22;52014;52.088;5.096;2023-04-03T11:52:56;9.90;99.90
65404;DHT22;52014;52.088;5.096;2023-04-03T12:03:29;9.60;99.90
65404;DHT22;52014;52.088;5.096;2023-04-03T12:13:40;9.80;99.90
65404;DHT22;52014;52.088;5.096;2023-04-03T12:16:06;9.80;99.90
65404;DHT22;52014;52.088;5.096;2023-04-03T12:18:40;9.80;99.90
65404;DHT22;52014;52.088;5.096;2023-04-03T12:21:06;9.90;99.90
65404;DHT22;52014;52.088;5.096;2023-04-03T12:23:35;9.70;99.90
65404;DHT22;52014;52.088;5.096;2023-04-03T12:26:03;9.80;99.90
65404;DHT22;52014;52.088;5.096;2023-04-03T12:28:35;9.90;99.90
65404;DHT22;52014;52.088;5.096;2023-04-03T12:31:01;9.80;99.90
65404;DHT22;52014;52.088;5.096;2023-04-03T12:33:33;9.70;99.90
65404;DHT22;52014;52.088;5.096;2023-04-03T12:36:10;9.70;99.90
65404;DHT22;52014;52.088;5.096;2023-04-03T12:46:43;9.80;99.90
65404;DHT22;52014;52.088;5.096;2023-04-03T12:49:24;9.80;99.90
65404;DHT22;52014;52.088;5.096;2023-04-03T12:51:51;9.80;99.90
65404;DHT22;52014;52.088;5.096;2023-04-03T12:56:48;9.60;99.90
65404;DHT22;52014;52.088;5.096;2023-04-03T13:01:40;9.60;99.90
65404;DHT22;52014;52.088;5.096;2023-04-03T13:04:05;9.70;98.20
65404;DHT22;52014;52.088;5.096;2023-04-03T13:06:39;9.70;99.90
65404;DHT22;52014;52.088;5.096;2023-04-03T13:09:05;9.80;99.90
65404;DHT22;52014;52.088;5.096;2023-04-03T13:11:33;9.70;99.90
65404;DHT22;52014;52.088;5.096;2023-04-03T13:14:02;9.60;99.90
65404;DHT22;52014;52.088;5.096;2023-04-03T13:16:30;9.60;99.90
65404;DHT22;52014;52.088;5.096;2023-04-03T13:18:57;9.50;99.90
65404;DHT22;52014;52.088;5.096;2023-04-03T13:21:24;9.40;99.90
65404;DHT22;52014;52.088;5.096;2023-04-03T13:23:51;9.60;99.90
65404;DHT22;52014;52.088;5.096;2023-04-03T13:26:18;9.60;99.10
65404;DHT22;52014;52.088;5.096;2023-04-03T13:28:45;9.60;99.90
65404;DHT22;52014;52.088;5.096;2023-04-03T13:33:36;9.50;99.90
65404;DHT22;52014;52.088;5.096;2023-04-03T13:36:11;9.50;99.90
65404;DHT22;52014;52.088;5.096;2023-04-03T13:38:41;9.50;99.90
65404;DHT22;52014;52.088;5.096;2023-04-03T13:41:24;9.50;99.90
65404;DHT22;52014;52.088;5.096;2023-04-03T13:43:50;9.50;98.50
65404;DHT22;52014;52.088;5.096;2023-04-03T13:48:42;9.80;99.90
65404;DHT22;52014;52.088;5.096;2023-04-03T13:53:34;9.70;99.90
65404;DHT22;52014;52.088;5.096;2023-04-03T13:56:07;9.70;99.90
65404;DHT22;52014;52.088;5.096;2023-04-03T13:58:33;9.60;99.90
65404;DHT22;52014;52.088;5.096;2023-04-03T14:01:11;9.60;99.90
65404;DHT22;52014;52.088;5.096;2023-04-03T14:03:40;9.70;99.90
65404;DHT22;52014;52.088;5.096;2023-04-03T14:06:06;9.50;99.90
65404;DHT22;52014;52.088;5.096;2023-04-03T14:08:32;9.60;99.90
65404;DHT22;52014;52.088;5.096;2023-04-03T14:10:57;9.60;99.90
65404;DHT22;52014;52.088;5.096;2023-04-03T14:13:23;9.60;99.90
65404;DHT22;52014;52.088;5.096;2023-04-03T14:15:50;9.80;99.90
65404;DHT22;52014;52.088;5.096;2023-04-03T14:18:17;9.70;99.90
65404;DHT22;52014;52.088;5.096;2023-04-03T14:20:43;9.60;99.90
65404;DHT22;52014;52.088;5.096;2023-04-03T14:23:09;9.60;99.90
65404;DHT22;52014;52.088;5.096;2023-04-03T14:25:35;9.60;99.90
65404;DHT22;52014;52.088;5.096;2023-04-03T14:28:00;9.60;99.90
65404;DHT22;52014;52.088;5.096;2023-04-03T14:30:27;9.60;99.90
65404;DHT22;52014;52.088;5.096;2023-04-03T14:32:54;9.50;99.90
65404;DHT22;52014;52.088;5.096;2023-04-03T14:35:19;9.60;99.90
65404;DHT22;52014;52.088;5.096;2023-04-03T14:37:45;9.70;99.90
65404;DHT22;52014;52.088;5.096;2023-04-03T14:40:16;9.70;99.90
65404;DHT22;52014;52.088;5.096;2023-04-03T14:42:41;9.80;99.90
65404;DHT22;52014;52.088;5.096;2023-04-03T14:45:08;9.80;99.90
65404;DHT22;52014;52.088;5.096;2023-04-03T14:47:35;9.70;99.90
65404;DHT22;52014;52.088;5.096;2023-04-03T14:50:02;9.60;99.90
65404;DHT22;52014;52.088;5.096;2023-04-03T14:52:30;9.60;99.90
65404;DHT22;52014;52.088;5.096;2023-04-03T14:54:56;9.60;99.90
65404;DHT22;52014;52.088;5.096;2023-04-03T14:57:23;9.60;99.90
65404;DHT22;52014;52.088;5.096;2023-04-03T14:59:49;9.60;99.90
65404;DHT22;52014;52.088;5.096;2023-04-03T15:02:22;9.60;99.90
65404;DHT22;52014;52.088;5.096;2023-04-03T15:04:50;9.70;99.90
65404;DHT22;52014;52.088;5.096;2023-04-03T15:07:15;9.70;99.90
65404;DHT22;52014;52.088;5.096;2023-04-03T15:09:41;9.70;99.90
65404;DHT22;52014;52.088;5.096;2023-04-03T15:12:08;9.70;99.90
65404;DHT22;52014;52.088;5.096;2023-04-03T15:14:33;9.80;99.90
65404;DHT22;52014;52.088;5.096;2023-04-03T15:16:59;9.70;99.90
65404;DHT22;52014;52.088;5.096;2023-04-03T15:19:25;9.70;99.90
65404;DHT22;52014;52.088;5.096;2023-04-03T15:21:50;9.80;99.90
65404;DHT22;52014;52.088;5.096;2023-04-03T15:24:16;9.70;99.90
65404;DHT22;52014;52.088;5.096;2023-04-03T15:26:41;9.80;99.90
65404;DHT22;52014;52.088;5.096;2023-04-03T15:29:07;9.90;99.90
65404;DHT22;52014;52.088;5.096;2023-04-03T15:31:32;9.90;99.90
65404;DHT22;52014;52.088;5.096;2023-04-03T15:33:58;10.00;99.90
65404;DHT22;52014;52.088;5.096;2023-04-03T15:36:23;9.90;99.90
65404;DHT22;52014;52.088;5.096;2023-04-03T15:38:49;9.80;99.90
65404;DHT22;52014;52.088;5.096;2023-04-03T15:41:14;9.90;99.90
65404;DHT22;52014;52.088;5.096;2023-04-03T15:43:40;10.10;99.90
65404;DHT22;52014;52.088;5.096;2023-04-03T15:46:05;10.10;99.90
65404;DHT22;52014;52.088;5.096;2023-04-03T15:48:31;10.00;99.90
65404;DHT22;52014;52.088;5.096;2023-04-03T15:50:56;9.90;99.90
65404;DHT22;52014;52.088;5.096;2023-04-03T15:53:22;9.80;99.90
65404;DHT22;52014;52.088;5.096;2023-04-03T15:55:47;9.80;99.90
65404;DHT22;52014;52.088;5.096;2023-04-03T15:58:13;9.80;99.90
65404;DHT22;52014;52.088;5.096;2023-04-03T16:00:38;10.00;99.90
65404;DHT22;52014;52.088;5.096;2023-04-03T16:03:04;9.90;99.90
65404;DHT22;52014;52.088;5.096;2023-04-03T16:05:30;10.00;99.90
65404;DHT22;52014;52.088;5.096;2023-04-03T16:07:56;9.80;99.90
65404;DHT22;52014;52.088;5.096;2023-04-03T16:10:23;9.70;99.90
65404;DHT22;52014;52.088;5.096;2023-04-03T16:12:48;9.70;99.90
65404;DHT22;52014;52.088;5.096;2023-04-03T16:15:14;9.80;99.90
65404;DHT22;52014;52.088;5.096;2023-04-03T16:17:39;9.80;99.90
65404;DHT22;52014;52.088;5.096;2023-04-03T16:20:06;9.80;99.90
65404;DHT22;52014;52.088;5.096;2023-04-03T16:22:32;9.70;99.90
65404;DHT22;52014;52.088;5.096;2023-04-03T16:24:58;9.60;99.90
65404;DHT22;52014;52.088;5.096;2023-04-03T16:27:24;9.60;99.90
65404;DHT22;52014;52.088;5.096;2023-04-03T16:29:55;9.60;99.90
65404;DHT22;52014;52.088;5.096;2023-04-03T16:32:21;9.60;99.90
65404;DHT22;52014;52.088;5.096;2023-04-03T16:34:47;9.50;99.90
65404;DHT22;52014;52.088;5.096;2023-04-03T16:37:13;9.50;99.90
65404;DHT22;52014;52.088;5.096;2023-04-03T16:39:38;9.50;99.90
65404;DHT22;52014;52.088;5.096;2023-04-03T16:42:04;9.40;99.90
65404;DHT22;52014;52.088;5.096;2023-04-03T16:44:29;9.30;99.90
65404;DHT22;52014;52.088;5.096;2023-04-03T16:46:54;9.20;99.90
65404;DHT22;52014;52.088;5.096;2023-04-03T16:49:20;9.30;99.90
65404;DHT22;52014;52.088;5.096;2023-04-03T16:51:45;9.30;99.90
65404;DHT22;52014;52.088;5.096;2023-04-03T16:54:13;9.20;99.90
65404;DHT22;52014;52.088;5.096;2023-04-03T16:56:39;9.20;99.90
65404;DHT22;52014;52.088;5.096;2023-04-03T16:59:04;9.20;99.90
65404;DHT22;52014;52.088;5.096;2023-04-03T17:01:30;9.20;99.90
65404;DHT22;52014;52.088;5.096;2023-04-03T17:03:55;9.10;99.90
65404;DHT22;52014;52.088;5.096;2023-04-03T17:06:21;9.10;99.90
65404;DHT22;52014;52.088;5.096;2023-04-03T17:08:49;9.10;99.90
65404;DHT22;52014;52.088;5.096;2023-04-03T17:11:15;9.00;99.90
65404;DHT22;52014;52.088;5.096;2023-04-03T17:13:40;9.00;99.90
65404;DHT22;52014;52.088;5.096;2023-04-03T17:16:07;9.00;99.90
65404;DHT22;52014;52.088;5.096;2023-04-03T17:18:33;9.00;99.90
65404;DHT22;52014;52.088;5.096;2023-04-03T17:20:59;9.00;99.90